Time;durP1;ratioP1;P1;durP2;ratioP2;P2;SDS_P1;SDS_P2;PMS_P1;PMS_P2;Temp;Humidity;BMP_temperature;BMP_pressure;BME280_temperature;BME280_humidity;BME280_pressure;Samples;Min_cycle;Max_cycle;Signal;HPM_P1;HPM_P2
2022/11/19 04:02:48;;;;;;;3.20;0.47;;;8.90;89.30;;;;;;5163747;23;88876;-76
2022/11/19 04:05:14;;;;;;;2.50;0.30;;;8.90;89.30;;;;;;4891672;28;86750;-76
2022/11/19 04:07:39;;;;;;;2.03;0.40;;;8.90;89.30;;;;;;4867905;28;86649;-76
2022/11/19 04:10:07;;;;;;;2.00;0.40;;;8.90;89.40;;;;;;4881188;28;86452;-77
2022/11/19 04:12:32;;;;;;;1.85;0.35;;;8.90;89.10;;;;;;4881557;28;87333;-76
2022/11/19 04:14:58;;;;;;;2.90;0.40;;;8.90;89.40;;;;;;4879693;28;86395;-76
2022/11/19 04:17:23;;;;;;;1.60;0.35;;;8.80;89.20;;;;;;4889414;28;86715;-76
2022/11/19 04:19:49;;;;;;;3.40;0.60;;;8.80;89.60;;;;;;4898778;28;86809;-74
2022/11/19 04:22:15;;;;;;;2.30;0.40;;;8.80;89.70;;;;;;4900354;28;87575;-75
2022/11/19 04:24:40;;;;;;;2.05;0.30;;;8.70;89.80;;;;;;4900671;28;87200;-75
2022/11/19 04:27:06;;;;;;;2.17;0.60;;;8.70;89.90;;;;;;4882157;28;86848;-75
2022/11/19 04:29:32;;;;;;;3.63;0.60;;;8.70;90.40;;;;;;4880569;28;87082;-75
2022/11/19 04:31:57;;;;;;;2.35;0.50;;;8.70;90.70;;;;;;4881281;28;87001;-75
2022/11/19 04:34:23;;;;;;;3.50;1.10;;;8.60;90.90;;;;;;4881219;28;86942;-78
2022/11/19 04:36:49;;;;;;;2.90;0.52;;;8.60;91.50;;;;;;4882045;28;86282;-75
2022/11/19 04:39:14;;;;;;;4.85;0.80;;;8.60;91.40;;;;;;4881912;28;86109;-75
2022/11/19 04:41:40;;;;;;;4.68;0.90;;;8.50;91.70;;;;;;4880512;28;87364;-75
2022/11/19 04:44:06;;;;;;;3.25;0.95;;;8.50;91.70;;;;;;4879374;28;87519;-76
2022/11/19 04:46:31;;;;;;;3.88;0.90;;;8.50;91.60;;;;;;4877862;28;87221;-76
2022/11/19 04:48:57;;;;;;;5.35;0.70;;;8.50;91.60;;;;;;4881603;28;86994;-76
2022/11/19 04:51:24;;;;;;;2.28;0.63;;;8.50;91.40;;;;;;4871313;28;87172;-76
2022/11/19 04:53:49;;;;;;;2.67;0.75;;;8.50;91.40;;;;;;4876311;28;87085;-75
2022/11/19 04:56:15;;;;;;;3.10;0.68;;;8.50;91.60;;;;;;4870013;28;86933;-75
2022/11/19 04:58:41;;;;;;;2.97;0.80;;;8.50;91.70;;;;;;4877233;28;87598;-75
2022/11/19 05:01:07;;;;;;;2.80;0.75;;;8.50;91.70;;;;;;4877596;28;87752;-74
2022/11/19 05:03:33;;;;;;;2.42;0.60;;;8.50;92.00;;;;;;4872789;28;87093;-75
2022/11/19 05:05:58;;;;;;;2.03;0.45;;;8.40;91.60;;;;;;4882698;28;86330;-75
2022/11/19 05:08:24;;;;;;;3.03;0.90;;;8.40;91.80;;;;;;4884990;28;86920;-74
2022/11/19 05:10:50;;;;;;;2.25;0.63;;;8.40;91.60;;;;;;4880148;28;88091;-76
2022/11/19 05:13:16;;;;;;;2.95;0.70;;;8.40;91.40;;;;;;4881522;28;88340;-76
2022/11/19 05:15:42;;;;;;;2.63;0.65;;;8.40;91.50;;;;;;4880050;28;86731;-77
2022/11/19 05:18:07;;;;;;;2.97;0.60;;;8.40;91.60;;;;;;4889266;28;86553;-75
2022/11/19 05:20:33;;;;;;;2.58;0.60;;;8.40;91.70;;;;;;4871033;28;86845;-77
2022/11/19 05:22:59;;;;;;;2.38;0.40;;;8.40;91.60;;;;;;4877276;28;87313;-77
2022/11/19 05:25:24;;;;;;;1.73;0.40;;;8.40;91.60;;;;;;4880617;28;86273;-75
2022/11/19 05:27:51;;;;;;;2.55;0.65;;;8.40;91.40;;;;;;4888307;28;86073;-75
2022/11/19 05:30:16;;;;;;;2.35;0.40;;;8.40;91.40;;;;;;4879731;28;86801;-76
2022/11/19 05:32:42;;;;;;;3.17;0.50;;;8.40;91.40;;;;;;4880342;28;87008;-76
2022/11/19 05:35:08;;;;;;;2.30;0.50;;;8.40;91.10;;;;;;4879237;28;88047;-74
2022/11/19 05:37:34;;;;;;;2.15;0.40;;;8.30;91.20;;;;;;4874915;28;86599;-75
2022/11/19 05:39:59;;;;;;;2.03;0.45;;;8.30;91.50;;;;;;4879226;28;87059;-75
2022/11/19 05:42:25;;;;;;;3.35;0.30;;;8.20;91.30;;;;;;4875874;28;87005;-74
2022/11/19 05:44:50;;;;;;;1.63;0.40;;;8.10;91.50;;;;;;4883121;28;87581;-75
2022/11/19 05:47:16;;;;;;;3.30;0.52;;;8.00;91.80;;;;;;4885093;28;86734;-75
2022/11/19 05:49:42;;;;;;;7.40;0.80;;;7.90;92.00;;;;;;4886026;28;86675;-76
2022/11/19 05:52:09;;;;;;;3.25;0.80;;;7.90;92.50;;;;;;4885096;28;87077;-77
2022/11/19 05:54:34;;;;;;;3.35;0.95;;;7.80;92.60;;;;;;4884509;28;86962;-75
2022/11/19 05:57:00;;;;;;;6.68;2.28;;;7.70;92.70;;;;;;4887762;28;86587;-75
2022/11/19 05:59:26;;;;;;;6.05;1.80;;;7.80;92.60;;;;;;4884599;28;88408;-75
2022/11/19 06:01:51;;;;;;;6.60;1.60;;;7.80;92.60;;;;;;4884127;28;88013;-75
2022/11/19 06:04:17;;;;;;;7.20;1.45;;;7.80;92.60;;;;;;4884031;28;86434;-74
2022/11/19 06:06:43;;;;;;;3.10;1.02;;;7.80;92.50;;;;;;4877590;28;86285;-74
2022/11/19 06:09:08;;;;;;;4.82;1.60;;;7.80;92.60;;;;;;4881901;28;88113;-75
2022/11/19 06:11:49;;;;;;;5.78;1.08;;;7.70;92.60;;;;;;4881250;28;86861;-75
2022/11/19 06:14:26;;;;;;;1.92;0.60;;;7.70;92.80;;;;;;4878750;28;86421;-75
2022/11/19 06:16:54;;;;;;;5.25;1.02;;;7.60;92.90;;;;;;4882611;28;85859;-75
2022/11/19 06:19:20;;;;;;;2.85;0.85;;;7.60;93.00;;;;;;4877130;28;87152;-78
2022/11/19 06:21:46;;;;;;;5.88;1.02;;;7.60;93.10;;;;;;4878571;28;86811;-76
2022/11/19 06:24:12;;;;;;;3.40;0.70;;;7.60;93.20;;;;;;4880524;28;87904;-77
2022/11/19 06:26:38;;;;;;;3.60;1.40;;;7.60;93.20;;;;;;4881536;28;86546;-75
2022/11/19 06:29:04;;;;;;;3.15;1.05;;;7.60;93.60;;;;;;4880545;28;86678;-76
2022/11/19 06:31:32;;;;;;;3.97;1.23;;;7.60;93.40;;;;;;4880704;28;88046;-75
2022/11/19 06:33:58;;;;;;;3.92;1.13;;;7.60;93.50;;;;;;4881204;28;86185;-76
2022/11/19 06:36:24;;;;;;;4.38;0.90;;;7.70;93.70;;;;;;4873500;28;86813;-77
2022/11/19 06:38:49;;;;;;;4.00;1.40;;;7.80;93.10;;;;;;4881532;28;86688;-76
2022/11/19 06:41:15;;;;;;;3.10;1.08;;;7.90;93.30;;;;;;4883271;28;87068;-75
2022/11/19 06:43:42;;;;;;;2.95;1.10;;;7.90;93.00;;;;;;4884644;28;86729;-76
2022/11/19 06:46:08;;;;;;;4.13;0.98;;;8.00;93.00;;;;;;4880871;28;86691;-75
2022/11/19 06:48:34;;;;;;;3.90;1.30;;;8.00;92.80;;;;;;4874861;28;88746;-77
2022/11/19 06:51:02;;;;;;;4.28;1.35;;;8.00;92.90;;;;;;4875273;28;87495;-76
2022/11/19 06:53:28;;;;;;;3.22;1.20;;;7.90;92.90;;;;;;4877844;28;86717;-75
2022/11/19 06:55:59;;;;;;;3.60;1.20;;;8.00;93.10;;;;;;4880765;28;86671;-76
2022/11/19 06:58:25;;;;;;;3.67;1.10;;;8.00;92.70;;;;;;4878143;28;87141;-77
2022/11/19 07:00:51;;;;;;;4.50;1.25;;;7.90;92.90;;;;;;4879681;28;86432;-76
2022/11/19 07:03:17;;;;;;;3.17;1.30;;;7.90;93.00;;;;;;4881058;28;87434;-75
2022/11/19 07:05:42;;;;;;;6.25;1.05;;;8.00;93.20;;;;;;4881548;28;85607;-75
2022/11/19 07:08:08;;;;;;;5.28;1.20;;;8.00;92.80;;;;;;4881917;28;88753;-75
2022/11/19 07:10:34;;;;;;;4.53;1.35;;;8.00;93.00;;;;;;4881419;28;87322;-75
2022/11/19 07:13:00;;;;;;;8.00;1.58;;;8.00;92.80;;;;;;4874893;28;88081;-74
2022/11/19 07:15:26;;;;;;;5.00;1.23;;;8.00;92.90;;;;;;4881875;28;87623;-75
2022/11/19 07:17:53;;;;;;;2.55;1.10;;;8.00;92.90;;;;;;4877715;28;87204;-75
2022/11/19 07:20:19;;;;;;;6.70;1.20;;;8.10;93.10;;;;;;4881994;28;87514;-74
2022/11/19 07:22:44;;;;;;;11.85;2.63;;;8.10;92.80;;;;;;4876420;28;86324;-75
2022/11/19 07:25:13;;;;;;;10.00;1.50;;;8.10;92.80;;;;;;4875519;28;86502;-75
2022/11/19 07:27:40;;;;;;;4.90;0.95;;;8.20;92.40;;;;;;4875484;28;86464;-77
2022/11/19 07:30:06;;;;;;;4.85;1.35;;;8.30;92.80;;;;;;4883590;28;86914;-76
2022/11/19 07:32:33;;;;;;;4.93;1.15;;;8.40;92.60;;;;;;4884887;28;87070;-75
2022/11/19 07:34:58;;;;;;;4.20;1.55;;;8.60;91.70;;;;;;4886204;28;86255;-77
2022/11/19 07:37:24;;;;;;;5.63;2.92;;;9.00;90.70;;;;;;4877798;28;88322;-76
2022/11/19 07:39:50;;;;;;;10.48;1.48;;;9.40;90.70;;;;;;4880554;28;87810;-76
2022/11/19 07:45:01;;;;;;;3.95;0.75;;;10.00;88.80;;;;;;4877583;28;86528;-76
2022/11/19 07:47:27;;;;;;;5.88;0.65;;;10.00;87.30;;;;;;4878812;28;87421;-76
2022/11/19 07:49:53;;;;;;;5.95;0.98;;;10.00;88.10;;;;;;4880759;28;86950;-77
2022/11/19 07:52:20;;;;;;;3.58;0.60;;;10.00;88.10;;;;;;4876262;28;86574;-76
2022/11/19 07:54:45;;;;;;;3.83;0.75;;;10.10;87.70;;;;;;4882923;28;85562;-77
2022/11/19 07:57:11;;;;;;;11.77;0.95;;;10.20;87.40;;;;;;4877801;28;89084;-75
2022/11/19 07:59:37;;;;;;;1.85;0.50;;;10.30;87.10;;;;;;4880886;28;86934;-77
2022/11/19 08:02:03;;;;;;;4.18;0.70;;;10.20;85.30;;;;;;4877399;28;87751;-78
2022/11/19 08:04:28;;;;;;;2.03;0.43;;;10.20;85.80;;;;;;4880646;28;87119;-77
2022/11/19 08:06:54;;;;;;;2.72;0.60;;;10.40;85.20;;;;;;4884792;28;86693;-77
2022/11/19 08:09:20;;;;;;;2.22;0.73;;;10.70;84.60;;;;;;4889179;28;86898;-76
2022/11/19 08:11:45;;;;;;;2.17;0.50;;;10.80;83.30;;;;;;4885471;28;86726;-77
2022/11/19 08:14:12;;;;;;;2.35;0.70;;;11.10;82.10;;;;;;4885514;28;86544;-77
2022/11/19 08:19:22;;;;;;;2.80;0.63;;;11.20;81.60;;;;;;4883360;28;86740;-76
2022/11/19 08:21:47;;;;;;;1.90;0.60;;;11.90;78.80;;;;;;4879784;28;86758;-78
2022/11/19 08:24:17;;;;;;;3.13;0.52;;;13.70;74.00;;;;;;4886220;28;86832;-77
2022/11/19 08:26:43;;;;;;;1.85;0.55;;;15.50;70.00;;;;;;4874402;28;88646;-77
2022/11/19 08:29:10;;;;;;;2.38;0.80;;;18.00;61.60;;;;;;4878772;28;87158;-76
2022/11/19 08:31:36;;;;;;;2.15;0.47;;;18.60;58.70;;;;;;4878510;28;86357;-77
2022/11/19 08:34:02;;;;;;;3.50;1.00;;;18.40;57.80;;;;;;4884489;28;86940;-77
2022/11/19 08:36:28;;;;;;;2.53;0.70;;;18.00;57.40;;;;;;4880745;28;86829;-76
2022/11/19 08:38:59;;;;;;;3.47;0.73;;;17.50;59.60;;;;;;4879891;28;89047;-77
2022/11/19 08:44:10;;;;;;;5.47;0.70;;;15.90;61.60;;;;;;4879685;28;85961;-77
2022/11/19 08:46:36;;;;;;;5.47;0.70;;;15.40;63.00;;;;;;4881857;28;88103;-75
2022/11/19 08:49:02;;;;;;;5.95;0.70;;;14.90;64.30;;;;;;4880420;28;87383;-76
2022/11/19 08:51:28;;;;;;;2.53;0.63;;;14.70;66.70;;;;;;4882442;28;87256;-76
2022/11/19 08:53:53;;;;;;;2.15;0.45;;;14.80;67.10;;;;;;4879288;28;88307;-76
2022/11/19 08:56:20;;;;;;;3.15;0.60;;;14.70;67.20;;;;;;4876712;28;87454;-77
2022/11/19 08:58:46;;;;;;;2.55;0.60;;;14.50;66.70;;;;;;4878640;28;87387;-75
2022/11/19 09:01:13;;;;;;;2.85;0.60;;;14.30;67.80;;;;;;4872583;28;88543;-77
2022/11/19 09:03:39;;;;;;;4.75;0.73;;;14.00;68.30;;;;;;4882656;28;86675;-76
2022/11/19 09:06:05;;;;;;;3.58;0.63;;;13.70;70.70;;;;;;4878389;28;87223;-76
2022/11/19 09:08:32;;;;;;;2.28;0.60;;;13.60;70.20;;;;;;4883836;28;87338;-77
2022/11/19 09:10:58;;;;;;;3.15;0.90;;;13.50;70.60;;;;;;4885671;28;87348;-77
2022/11/19 09:13:24;;;;;;;4.53;0.60;;;13.40;71.20;;;;;;4877642;28;87822;-77
2022/11/19 09:15:50;;;;;;;2.85;0.65;;;13.40;71.60;;;;;;4870750;28;89462;-75
2022/11/19 09:18:16;;;;;;;6.57;0.90;;;13.50;70.60;;;;;;4880056;28;87108;-77
2022/11/19 09:20:42;;;;;;;2.35;0.70;;;14.00;71.80;;;;;;4886651;28;86872;-76
2022/11/19 09:23:08;;;;;;;2.33;0.70;;;14.40;68.90;;;;;;4884919;28;86660;-76
2022/11/19 09:25:34;;;;;;;3.92;0.95;;;15.00;67.50;;;;;;4883531;28;87126;-75
2022/11/19 09:28:00;;;;;;;2.40;0.70;;;15.50;64.80;;;;;;4878571;28;87388;-76
2022/11/19 09:30:26;;;;;;;2.83;0.60;;;16.20;63.60;;;;;;4878350;28;86912;-76
2022/11/19 09:32:51;;;;;;;3.15;0.70;;;16.20;61.40;;;;;;4882865;28;87257;-79
2022/11/19 09:35:17;;;;;;;3.10;0.70;;;16.70;60.10;;;;;;4883455;28;86541;-78
2022/11/19 09:37:43;;;;;;;1.60;0.50;;;17.60;58.20;;;;;;4886400;28;87072;-76
2022/11/19 09:40:16;;;;;;;2.95;0.40;;;18.70;55.80;;;;;;4881563;28;87693;-76
2022/11/19 09:43:03;;;;;;;1.80;0.68;;;18.90;53.30;;;;;;4886484;28;86869;-77
2022/11/19 09:45:53;;;;;;;2.55;0.40;;;18.60;55.10;;;;;;4885117;28;87127;-75
2022/11/19 09:48:34;;;;;;;2.15;0.40;;;17.60;55.10;;;;;;4884272;28;86663;-78
2022/11/19 09:51:06;;;;;;;1.45;0.40;;;16.80;57.00;;;;;;4875535;28;86384;-78
2022/11/19 09:53:39;;;;;;;1.08;0.32;;;16.20;58.50;;;;;;4879660;28;86876;-78
2022/11/19 09:56:05;;;;;;;1.92;0.40;;;15.70;59.70;;;;;;4878458;28;87503;-75
2022/11/19 09:58:44;;;;;;;1.15;0.20;;;15.10;60.90;;;;;;4886145;28;86735;-75
2022/11/19 10:01:16;;;;;;;1.50;0.32;;;14.30;60.90;;;;;;4880881;28;87043;-76
2022/11/19 10:03:49;;;;;;;2.55;0.50;;;13.70;64.10;;;;;;4882354;28;86809;-76
2022/11/19 10:06:14;;;;;;;2.33;0.30;;;13.50;65.20;;;;;;4878963;28;88293;-75
2022/11/19 10:09:10;;;;;;;1.63;0.20;;;13.30;65.90;;;;;;4878112;28;87296;-77
2022/11/19 10:12:07;;;;;;;1.77;0.40;;;13.20;65.40;;;;;;4882867;28;87008;-76
2022/11/19 10:14:48;;;;;;;1.65;0.30;;;13.10;66.70;;;;;;4882576;28;87146;-75
2022/11/19 10:17:42;;;;;;;2.10;0.22;;;13.00;66.60;;;;;;4878470;28;90296;-74
2022/11/19 10:20:13;;;;;;;1.20;0.13;;;12.90;66.50;;;;;;4877603;28;87759;-78
2022/11/19 10:22:51;;;;;;;1.70;0.20;;;12.80;67.10;;;;;;4880402;28;87443;-75
2022/11/19 10:25:20;;;;;;;0.90;0.17;;;12.50;67.40;;;;;;4884375;28;87455;-75
2022/11/19 10:27:55;;;;;;;1.90;0.30;;;12.40;70.50;;;;;;4881998;28;86594;-75
2022/11/19 10:30:23;;;;;;;1.63;0.32;;;12.20;71.70;;;;;;4880212;28;87410;-76
2022/11/19 10:33:03;;;;;;;5.20;0.32;;;12.10;70.60;;;;;;4882085;28;88217;-76
2022/11/19 10:35:39;;;;;;;3.00;0.30;;;12.00;71.10;;;;;;4876417;28;86368;-76
2022/11/19 10:38:22;;;;;;;2.45;0.28;;;12.00;70.30;;;;;;4875922;28;87364;-76
2022/11/19 10:40:56;;;;;;;1.38;0.20;;;12.00;70.60;;;;;;4881386;28;88079;-76
2022/11/19 10:43:27;;;;;;;2.22;0.30;;;11.80;70.60;;;;;;4881366;28;86886;-75
2022/11/19 10:45:55;;;;;;;1.98;0.40;;;11.90;71.10;;;;;;4877596;28;86897;-75
2022/11/19 10:48:23;;;;;;;1.67;0.32;;;12.00;78.10;;;;;;4876895;28;87408;-76
2022/11/19 10:50:54;;;;;;;2.67;0.20;;;12.30;74.30;;;;;;4879588;28;87006;-75
2022/11/19 10:53:28;;;;;;;1.70;0.25;;;12.50;73.50;;;;;;4880452;28;87069;-74
2022/11/19 10:56:00;;;;;;;1.73;0.32;;;12.60;70.10;;;;;;4883412;28;86827;-76
2022/11/19 10:58:33;;;;;;;1.42;0.30;;;12.70;67.90;;;;;;4882437;28;88302;-75
2022/11/19 11:01:01;;;;;;;2.88;0.30;;;12.70;68.50;;;;;;4890573;28;88185;-75
2022/11/19 11:03:42;;;;;;;2.72;0.30;;;12.80;68.90;;;;;;4884101;28;86623;-75
2022/11/19 11:06:09;;;;;;;1.67;0.38;;;13.10;69.30;;;;;;4883535;28;86493;-74
2022/11/19 11:08:48;;;;;;;2.70;0.22;;;13.30;66.90;;;;;;4881492;28;87478;-76
2022/11/19 11:11:23;;;;;;;1.52;0.30;;;13.50;66.60;;;;;;4881418;28;87957;-75
2022/11/19 11:16:52;;;;;;;1.65;0.50;;;13.90;67.70;;;;;;4884911;28;85582;-76
2022/11/19 11:19:20;;;;;;;2.50;0.32;;;14.20;66.70;;;;;;4881552;28;88423;-76
2022/11/19 11:21:54;;;;;;;2.42;0.50;;;14.20;65.40;;;;;;4878928;28;86391;-76
2022/11/19 11:24:20;;;;;;;2.80;0.40;;;14.20;64.50;;;;;;4870015;28;87256;-76
2022/11/19 11:26:46;;;;;;;2.72;0.93;;;14.20;64.30;;;;;;4875814;28;86957;-77
2022/11/19 11:29:12;;;;;;;2.40;0.60;;;14.10;64.70;;;;;;4886233;28;86907;-75
2022/11/19 11:31:46;;;;;;;1.98;0.40;;;13.90;67.70;;;;;;4883899;28;88664;-76
2022/11/19 11:34:35;;;;;;;1.63;0.63;;;13.50;67.60;;;;;;4880317;28;86279;-76
2022/11/19 11:37:04;;;;;;;2.60;0.40;;;13.40;71.00;;;;;;4879705;28;87060;-75
2022/11/19 11:39:36;;;;;;;3.50;0.68;;;13.30;71.30;;;;;;4879189;28;87798;-75
2022/11/19 11:42:03;;;;;;;1.70;0.43;;;13.10;70.90;;;;;;4883133;28;86148;-76
2022/11/19 11:44:34;;;;;;;4.13;0.47;;;12.90;71.60;;;;;;4879275;28;86371;-76
2022/11/19 11:47:15;;;;;;;2.08;0.50;;;12.90;72.20;;;;;;4878863;28;87409;-76
2022/11/19 11:49:44;;;;;;;3.55;0.40;;;12.80;72.30;;;;;;4874665;28;87985;-76
2022/11/19 11:52:10;;;;;;;2.22;0.40;;;12.80;73.80;;;;;;4880463;28;87891;-76
2022/11/19 11:54:57;;;;;;;2.80;0.32;;;12.70;73.40;;;;;;4876131;28;86686;-75
2022/11/19 11:57:50;;;;;;;5.75;0.63;;;12.60;72.30;;;;;;4848305;28;86933;-75
2022/11/19 12:00:28;;;;;;;3.90;0.60;;;12.60;73.40;;;;;;4873487;28;88444;-75
2022/11/19 12:03:02;;;;;;;3.83;0.43;;;12.60;74.60;;;;;;4870050;28;87124;-75
2022/11/19 12:05:40;;;;;;;2.70;0.52;;;12.60;74.40;;;;;;4879909;28;86782;-77
2022/11/19 12:08:16;;;;;;;2.50;0.43;;;12.50;73.70;;;;;;4888509;28;86209;-75
2022/11/19 12:11:01;;;;;;;2.25;0.40;;;12.50;73.00;;;;;;4879006;28;86889;-74
2022/11/19 12:13:37;;;;;;;4.43;1.30;;;12.60;73.60;;;;;;4886017;28;87076;-77
2022/11/19 12:16:10;;;;;;;2.65;0.88;;;12.50;73.50;;;;;;4878939;28;87640;-76
2022/11/19 12:18:41;;;;;;;2.85;0.50;;;12.60;73.40;;;;;;4876320;28;86839;-74
2022/11/19 12:21:26;;;;;;;3.72;1.02;;;12.70;73.00;;;;;;4884055;28;87313;-76
2022/11/19 12:23:57;;;;;;;4.30;0.47;;;12.70;73.20;;;;;;4874029;28;87005;-75
2022/11/19 12:26:33;;;;;;;1.95;0.40;;;12.70;72.70;;;;;;4878039;28;87021;-75
2022/11/19 12:29:10;;;;;;;2.13;0.60;;;12.70;73.00;;;;;;4878702;28;86673;-75
2022/11/19 12:31:56;;;;;;;4.32;0.38;;;12.70;72.50;;;;;;4875913;28;87739;-75
2022/11/19 12:34:43;;;;;;;2.92;0.60;;;12.50;73.50;;;;;;4878607;28;87089;-76
2022/11/19 12:37:17;;;;;;;1.17;0.30;;;12.40;72.50;;;;;;4873007;28;87452;-76
2022/11/19 12:39:54;;;;;;;2.78;0.60;;;12.30;73.10;;;;;;4872475;28;87142;-74
2022/11/19 12:42:38;;;;;;;2.42;0.50;;;12.20;74.20;;;;;;4881258;28;87671;-73
2022/11/19 12:45:35;;;;;;;5.47;1.30;;;12.00;76.80;;;;;;4878847;28;88874;-74
2022/11/19 12:48:26;;;;;;;3.72;0.93;;;12.10;78.10;;;;;;4872341;28;86952;-74
2022/11/19 12:51:04;;;;;;;3.92;0.70;;;12.00;74.60;;;;;;4878684;28;87051;-74
2022/11/19 12:53:48;;;;;;;3.92;1.40;;;12.00;74.60;;;;;;4878462;28;87045;-74
2022/11/19 12:56:29;;;;;;;3.35;0.80;;;11.90;75.00;;;;;;4870861;28;86648;-74
2022/11/19 12:59:22;;;;;;;3.97;0.47;;;12.00;74.80;;;;;;4878619;28;86986;-74
2022/11/19 13:01:52;;;;;;;3.15;0.70;;;11.90;75.50;;;;;;4878750;28;86726;-73
2022/11/19 13:04:27;;;;;;;4.22;1.00;;;11.90;75.40;;;;;;4878507;28;87962;-74
2022/11/19 13:07:05;;;;;;;6.95;2.95;;;11.80;75.50;;;;;;4886230;28;86964;-73
2022/11/19 13:09:45;;;;;;;4.30;1.33;;;11.70;75.00;;;;;;4877824;28;88098;-75
2022/11/19 13:12:19;;;;;;;2.13;0.70;;;11.80;75.20;;;;;;4875631;28;86342;-74
2022/11/19 13:14:55;;;;;;;2.08;0.38;;;11.80;75.00;;;;;;4878308;28;88249;-73
2022/11/19 13:17:24;;;;;;;;;;;11.70;75.10;;;;;;4879268;28;87120;-75
2022/11/19 13:19:55;;;;;;;2.03;0.60;;;11.70;75.20;;;;;;4880033;28;86732;-74
2022/11/19 13:22:28;;;;;;;3.25;0.55;;;11.60;75.50;;;;;;4878925;28;86531;-74
2022/11/19 13:25:06;;;;;;;3.75;0.70;;;11.50;75.80;;;;;;4878107;28;86687;-74
2022/11/19 13:27:31;;;;;;;5.22;1.02;;;11.50;76.00;;;;;;4878960;28;87488;-75
2022/11/19 13:30:02;;;;;;;4.40;1.05;;;11.50;76.10;;;;;;4878231;28;86342;-76
2022/11/19 13:32:30;;;;;;;4.57;1.38;;;11.60;76.40;;;;;;4877605;28;87131;-76
2022/11/19 13:35:00;;;;;;;4.88;1.23;;;11.50;76.30;;;;;;4877322;28;87909;-76
2022/11/19 13:37:44;;;;;;;;;;;11.50;76.30;;;;;;4878955;28;87428;-75
2022/11/19 13:40:36;;;;;;;2.95;0.75;;;11.50;76.20;;;;;;4872462;28;86820;-75
2022/11/19 13:45:58;;;;;;;2.17;0.45;;;11.50;75.80;;;;;;4877989;28;86961;-74
2022/11/19 13:48:32;;;;;;;2.38;0.50;;;11.50;76.30;;;;;;4877494;28;87509;-74
2022/11/19 13:51:01;;;;;;;3.25;0.63;;;11.50;76.40;;;;;;4878155;28;86755;-74
2022/11/19 13:53:46;;;;;;;2.80;0.65;;;11.50;75.90;;;;;;4878731;28;86869;-74
2022/11/19 13:56:16;;;;;;;2.38;0.55;;;11.40;76.00;;;;;;4875623;28;87591;-74
2022/11/19 13:58:59;;;;;;;3.40;0.40;;;11.40;75.80;;;;;;4877516;28;87310;-74
2022/11/19 14:01:43;;;;;;;2.90;0.70;;;11.40;75.90;;;;;;4878553;28;87184;-75
2022/11/19 14:04:21;;;;;;;6.03;1.30;;;11.40;76.00;;;;;;4869191;28;86856;-74
2022/11/19 14:06:57;;;;;;;3.03;0.70;;;11.40;75.90;;;;;;4882684;28;86882;-74
2022/11/19 14:09:41;;;;;;;2.42;0.45;;;11.30;76.40;;;;;;4882627;28;86881;-74
2022/11/19 14:12:39;;;;;;;3.67;0.32;;;11.30;76.60;;;;;;4879349;28;87013;-74
2022/11/19 14:27:26;;;;;;;5.60;0.50;;;11.00;77.30;;;;;;4874895;28;86319;-74
2022/11/19 14:30:00;;;;;;;2.03;0.30;;;11.00;77.60;;;;;;4881888;28;88189;-75
2022/11/19 14:32:39;;;;;;;3.67;0.50;;;11.00;77.30;;;;;;4881705;28;87946;-75
2022/11/19 14:35:06;;;;;;;4.68;0.65;;;10.90;77.30;;;;;;4878937;28;86264;-76
2022/11/19 14:37:44;;;;;;;3.33;0.60;;;10.90;77.70;;;;;;4881653;28;86955;-77
2022/11/19 14:40:29;;;;;;;2.15;0.40;;;10.90;78.40;;;;;;4877571;28;87299;-77
2022/11/19 14:46:00;;;;;;;5.65;0.68;;;10.90;78.50;;;;;;4883382;28;87420;-75
2022/11/19 14:48:39;;;;;;;5.55;0.88;;;10.90;77.70;;;;;;4883492;28;86057;-75
2022/11/19 14:51:07;;;;;;;3.63;0.90;;;10.80;77.90;;;;;;4880582;28;86940;-74
2022/11/19 14:53:45;;;;;;;4.95;0.70;;;10.80;78.10;;;;;;4875968;28;86840;-74
2022/11/19 14:56:13;;;;;;;2.38;0.45;;;10.80;78.60;;;;;;4877145;28;87250;-77
2022/11/19 14:58:51;;;;;;;3.95;0.70;;;10.80;78.80;;;;;;4881185;28;86904;-78
2022/11/19 15:01:19;;;;;;;4.18;0.85;;;10.80;79.50;;;;;;4879264;28;87286;-75
2022/11/19 15:03:53;;;;;;;4.00;0.90;;;10.80;79.80;;;;;;4882291;28;86790;-75
2022/11/19 15:06:19;;;;;;;4.57;1.83;;;10.70;80.10;;;;;;4882012;28;87015;-75
2022/11/19 15:08:48;;;;;;;6.30;2.17;;;10.60;80.70;;;;;;4883036;28;86783;-76
2022/11/19 15:11:14;;;;;;;4.40;1.20;;;10.50;81.00;;;;;;4878749;28;87693;-74
2022/11/19 15:13:42;;;;;;;5.30;1.27;;;10.50;81.80;;;;;;4881762;28;87177;-74
2022/11/19 15:16:18;;;;;;;7.95;2.00;;;10.50;82.20;;;;;;4878949;28;86725;-75
2022/11/19 15:18:44;;;;;;;3.13;1.02;;;10.40;83.00;;;;;;4880550;28;86734;-78
2022/11/19 15:21:27;;;;;;;5.55;2.10;;;10.40;83.80;;;;;;4880912;28;87927;-74
2022/11/19 15:24:11;;;;;;;8.50;3.03;;;10.30;84.20;;;;;;4876653;28;88081;-74
2022/11/19 15:26:57;;;;;;;6.10;2.38;;;10.20;84.90;;;;;;4880748;28;87066;-77
2022/11/19 15:29:42;;;;;;;13.48;2.67;;;10.30;84.50;;;;;;4873556;28;87472;-75
2022/11/19 15:32:29;;;;;;;4.72;2.22;;;10.20;85.00;;;;;;4873095;28;87648;-75
2022/11/19 15:35:03;;;;;;;6.60;2.65;;;10.20;85.60;;;;;;4881728;28;86977;-74
2022/11/19 15:37:52;;;;;;;6.78;2.05;;;10.10;84.80;;;;;;4881539;28;87554;-74
2022/11/19 15:40:24;;;;;;;7.70;2.40;;;10.20;84.40;;;;;;4880236;28;85570;-75
2022/11/19 15:43:20;;;;;;;9.02;2.63;;;10.10;85.00;;;;;;4880964;28;90250;-74
2022/11/19 15:45:55;;;;;;;7.43;2.50;;;10.10;84.80;;;;;;4881235;28;86980;-76
2022/11/19 15:48:51;;;;;;;5.25;2.42;;;10.10;84.20;;;;;;4873468;28;87588;-75
2022/11/19 15:51:18;;;;;;;7.70;2.35;;;10.10;83.90;;;;;;4878620;28;86946;-74
2022/11/19 15:54:05;;;;;;;5.43;2.20;;;10.00;85.30;;;;;;4880959;28;87287;-77
2022/11/19 15:56:36;;;;;;;8.82;2.38;;;9.90;85.80;;;;;;4881494;28;86994;-76
2022/11/19 15:59:03;;;;;;;6.18;2.55;;;9.90;86.50;;;;;;4881073;28;86311;-77
2022/11/19 16:01:31;;;;;;;9.75;2.95;;;9.80;86.60;;;;;;4878869;28;87083;-75
2022/11/19 16:03:57;;;;;;;7.43;2.33;;;9.80;87.00;;;;;;4879358;28;87012;-76
2022/11/19 16:06:26;;;;;;;8.05;2.60;;;9.80;87.00;;;;;;4881724;28;86251;-78
2022/11/19 16:08:59;;;;;;;7.63;2.63;;;9.80;87.00;;;;;;4880546;28;86377;-76
2022/11/19 16:17:33;;;;;;;8.48;4.15;;;9.80;87.40;;;;;;4875365;28;87137;-76
2022/11/19 16:20:18;;;;;;;8.35;3.00;;;9.80;87.20;;;;;;4881401;28;86732;-77
2022/11/19 16:22:49;;;;;;;7.93;3.17;;;9.80;87.50;;;;;;4880767;28;86319;-76
2022/11/19 16:25:27;;;;;;;14.23;7.45;;;9.80;87.40;;;;;;4875335;28;87375;-74
2022/11/19 16:27:55;;;;;;;9.75;4.60;;;9.80;86.70;;;;;;4872003;28;86317;-74
2022/11/19 16:30:27;;;;;;;10.65;5.43;;;9.80;87.70;;;;;;4880817;28;86252;-75
2022/11/19 16:32:57;;;;;;;12.60;5.25;;;9.90;88.30;;;;;;4878900;28;85530;-75
2022/11/19 16:35:30;;;;;;;10.40;4.43;;;9.80;87.80;;;;;;4880594;28;87274;-75
2022/11/19 16:37:57;;;;;;;11.52;4.25;;;9.80;88.40;;;;;;4880792;28;87091;-75
2022/11/19 16:40:23;;;;;;;15.85;4.97;;;9.80;87.40;;;;;;4879955;28;88047;-76
2022/11/19 16:42:59;;;;;;;10.95;4.47;;;9.80;86.60;;;;;;4880624;28;86709;-74
2022/11/19 16:45:27;;;;;;;11.85;4.75;;;9.90;87.70;;;;;;4879187;28;87118;-75
2022/11/19 16:47:57;;;;;;;12.23;4.15;;;9.90;86.80;;;;;;4872587;28;87172;-74
2022/11/19 16:50:34;;;;;;;30.58;11.10;;;9.90;86.80;;;;;;4876160;28;87541;-75
2022/11/19 16:53:05;;;;;;;24.27;8.73;;;9.90;86.10;;;;;;4879292;28;86207;-74
2022/11/19 16:55:32;;;;;;;20.08;6.50;;;9.90;85.80;;;;;;4880446;28;86726;-74
2022/11/19 16:58:12;;;;;;;12.05;4.97;;;9.90;85.50;;;;;;4880490;28;87481;-74
2022/11/19 17:00:38;;;;;;;13.52;4.35;;;9.90;85.30;;;;;;4882828;28;86944;-74
2022/11/19 17:03:17;;;;;;;16.55;5.07;;;9.90;86.00;;;;;;4877846;28;86356;-74
2022/11/19 17:05:48;;;;;;;11.23;3.90;;;9.90;86.60;;;;;;4872021;28;88077;-74
2022/11/19 17:08:29;;;;;;;10.38;3.85;;;9.90;86.10;;;;;;4879055;28;87337;-75
2022/11/19 17:14:17;;;;;;;10.18;2.63;;;9.90;86.40;;;;;;4878667;28;86274;-74
2022/11/19 17:17:02;;;;;;;9.05;2.95;;;9.90;86.00;;;;;;4878728;28;87352;-74
2022/11/19 17:19:35;;;;;;;4.30;1.00;;;9.80;85.70;;;;;;4876978;28;87160;-75
2022/11/19 17:22:18;;;;;;;4.70;0.57;;;9.70;83.50;;;;;;4883073;28;86632;-76
2022/11/19 17:24:45;;;;;;;1.40;0.20;;;9.60;82.60;;;;;;4877902;28;85513;-75
2022/11/19 17:27:34;;;;;;;0.98;0.10;;;9.50;82.10;;;;;;4879426;28;86608;-75
2022/11/19 17:30:18;;;;;;;1.75;0.30;;;9.40;82.20;;;;;;4880029;28;86994;-75
2022/11/19 17:32:59;;;;;;;1.15;0.10;;;9.30;83.00;;;;;;4879680;28;87603;-74
2022/11/19 17:35:41;;;;;;;1.45;0.30;;;9.30;83.20;;;;;;4879531;28;86352;-75
2022/11/19 17:38:12;;;;;;;1.95;0.10;;;9.30;84.30;;;;;;4876002;28;86572;-75
2022/11/19 17:40:42;;;;;;;1.02;0.10;;;9.20;85.30;;;;;;4875836;28;87148;-74
2022/11/19 17:46:10;;;;;;;;;;;9.30;86.30;;;;;;4858727;29;86629;-74
2022/11/19 17:48:39;;;;;;;2.35;0.10;;;9.20;86.70;;;;;;4879111;28;87562;-74
2022/11/19 17:51:05;;;;;;;1.60;0.20;;;9.30;86.40;;;;;;4883002;28;86400;-74
2022/11/19 17:53:31;;;;;;;3.50;0.50;;;9.30;85.70;;;;;;4878613;28;86443;-75
2022/11/19 17:55:57;;;;;;;3.33;0.90;;;9.30;87.10;;;;;;4883087;28;86847;-74